Time;durP1;ratioP1;P1;durP2;ratioP2;P2;SDS_P1;SDS_P2;PMS_P1;PMS_P2;Temp;Humidity;BMP_temperature;BMP_pressure;BME280_temperature;BME280_humidity;BME280_pressure;Samples;Min_cycle;Max_cycle;Signal;HPM_P1;HPM_P2
2023/01/02 00:00:05;;;;;;;9.02;6.75;;;;;;;10.96;71.64;99631.22;341079;29;1140;-70
2023/01/02 00:00:18;;;;;;;8.63;7.32;;;;;;;10.97;71.43;99632.09;341274;28;1766;-72
2023/01/02 00:00:32;;;;;;;8.05;7.07;;;;;;;10.98;71.34;99633.78;341389;28;1335;-69
2023/01/02 00:00:45;;;;;;;7.93;6.63;;;;;;;11.00;71.46;99634.59;339724;29;1120;-72
2023/01/02 00:00:57;;;;;;;7.88;6.25;;;;;;;10.99;71.27;99635.50;340065;28;1698;-74
2023/01/02 00:01:09;;;;;;;7.05;5.70;;;;;;;11.00;71.47;99632.81;341108;28;1764;-70
2023/01/02 00:01:21;;;;;;;6.80;5.05;;;;;;;11.01;71.44;99633.69;340272;29;1071;-71
2023/01/02 00:01:33;;;;;;;7.05;4.57;;;;;;;11.01;71.31;99633.69;339897;29;982;-70
2023/01/02 00:01:45;;;;;;;6.85;4.40;;;;;;;11.02;70.90;99630.19;339867;29;992;-70
2023/01/02 00:01:57;;;;;;;6.20;4.03;;;;;;;11.04;71.11;99630.97;339453;29;1312;-71
2023/01/02 00:02:09;;;;;;;6.32;3.72;;;;;;;11.02;70.88;99627.56;338765;29;1658;-70
2023/01/02 00:02:23;;;;;;;6.10;3.60;;;;;;;10.99;71.25;99631.13;338482;29;1548;-69
2023/01/02 00:02:35;;;;;;;5.28;3.33;;;;;;;11.00;71.00;99627.63;338189;29;1817;-70
2023/01/02 00:02:47;;;;;;;4.55;3.17;;;;;;;11.00;71.09;99627.63;339182;29;1216;-70
2023/01/02 00:02:59;;;;;;;3.85;3.00;;;;;;;11.02;70.87;99629.34;339611;29;1192;-70
2023/01/02 00:03:12;;;;;;;5.20;3.10;;;;;;;11.03;71.10;99629.28;339411;29;1698;-70
2023/01/02 00:03:24;;;;;;;6.40;3.40;;;;;;;11.00;70.74;99629.38;339476;29;1550;-72
2023/01/02 00:03:36;;;;;;;6.32;3.35;;;;;;;10.97;71.04;99632.09;339698;29;1073;-70
2023/01/02 00:03:48;;;;;;;8.07;5.25;;;;;;;10.95;71.35;99631.31;339685;29;1181;-70
2023/01/02 00:04:00;;;;;;;10.48;8.13;;;;;;;10.95;71.37;99628.72;340268;28;1565;-70
2023/01/02 00:04:12;;;;;;;12.43;9.82;;;;;;;10.94;71.49;99637.41;341014;28;1299;-70
2023/01/02 00:04:24;;;;;;;9.98;7.35;;;;;;;10.95;71.66;99633.91;340124;28;1955;-70
2023/01/02 00:04:36;;;;;;;7.05;5.10;;;;;;;10.94;71.87;99627.84;341288;28;1795;-70
2023/01/02 00:04:48;;;;;;;8.18;4.32;;;;;;;10.87;71.77;99631.56;342350;28;1011;-70
2023/01/02 00:05:00;;;;;;;8.45;4.10;;;;;;;10.84;72.06;99630.81;342238;28;1287;-70
2023/01/02 00:05:12;;;;;;;7.43;4.38;;;;;;;10.84;71.75;99636.00;342420;28;1087;-70
2023/01/02 00:05:24;;;;;;;7.63;4.70;;;;;;;10.87;71.99;99630.72;342174;28;1516;-70
2023/01/02 00:05:36;;;;;;;6.40;4.50;;;;;;;10.90;71.94;99628.00;341874;28;1551;-70
2023/01/02 00:05:48;;;;;;;5.25;3.90;;;;;;;10.91;72.18;99630.56;342120;28;1442;-70
2023/01/02 00:06:06;;;;;;;5.18;3.33;;;;;;;10.95;71.96;99629.56;342359;28;1183;-70
2023/01/02 00:06:18;;;;;;;7.25;4.05;;;;;;;10.97;71.37;99627.75;342320;28;1322;-70
2023/01/02 00:06:35;;;;;;;7.25;4.20;;;;;;;10.97;71.96;99629.50;342342;28;1307;-70
2023/01/02 00:06:47;;;;;;;9.25;4.10;;;;;;;10.99;71.60;99622.50;341991;28;1239;-72
2023/01/02 00:06:59;;;;;;;8.60;3.78;;;;;;;11.00;71.84;99631.97;342622;28;1248;-71
2023/01/02 00:07:11;;;;;;;6.72;3.75;;;;;;;11.00;71.41;99616.38;341725;28;1818;-72
2023/01/02 00:07:23;;;;;;;5.32;3.60;;;;;;;11.01;71.22;99623.28;342079;28;1192;-71
2023/01/02 00:07:35;;;;;;;5.15;3.38;;;;;;;11.03;71.08;99625.81;341649;28;1651;-73
2023/01/02 00:07:50;;;;;;;5.22;3.17;;;;;;;11.03;71.18;99626.69;341913;28;1716;-71
2023/01/02 00:08:02;;;;;;;5.45;3.00;;;;;;;11.04;71.19;99623.16;342241;28;1128;-71
2023/01/02 00:08:16;;;;;;;6.68;3.10;;;;;;;11.04;70.85;99625.78;342056;28;1020;-70
2023/01/02 00:08:30;;;;;;;7.60;3.03;;;;;;;11.02;70.73;99624.97;340907;29;1108;-70
2023/01/02 00:08:42;;;;;;;7.53;3.20;;;;;;;11.00;70.94;99616.38;340816;29;1046;-70
2023/01/02 00:08:54;;;;;;;7.80;3.47;;;;;;;10.99;70.83;99619.91;341401;28;1783;-71
2023/01/02 00:09:08;;;;;;;8.57;4.63;;;;;;;10.94;71.02;99621.78;340678;28;1598;-71
2023/01/02 00:09:20;;;;;;;11.35;4.75;;;;;;;10.90;71.41;99618.44;341150;28;1579;-70
2023/01/02 00:09:32;;;;;;;10.60;4.00;;;;;;;10.82;71.69;99627.41;341898;28;1829;-71
2023/01/02 00:09:44;;;;;;;8.38;3.50;;;;;;;10.74;71.60;99620.72;343277;28;1067;-71
2023/01/02 00:09:55;;;;;;;6.78;3.45;;;;;;;10.67;71.86;99624.44;342510;28;1520;-71
2023/01/02 00:10:08;;;;;;;6.60;3.45;;;;;;;10.62;72.58;99625.47;342027;28;1296;-71
2023/01/02 00:10:20;;;;;;;8.68;5.80;;;;;;;10.65;72.21;99615.84;342151;28;1361;-71
2023/01/02 00:10:32;;;;;;;8.15;5.90;;;;;;;10.62;72.39;99615.09;342921;28;1051;-70
2023/01/02 00:10:43;;;;;;;7.82;4.65;;;;;;;10.52;72.52;99620.59;343209;28;1229;-70
2023/01/02 00:10:56;;;;;;;7.20;3.92;;;;;;;10.54;72.56;99618.81;343047;28;1952;-70
2023/01/02 00:11:07;;;;;;;6.53;3.75;;;;;;;10.60;72.79;99617.72;343458;28;1570;-70
2023/01/02 00:11:19;;;;;;;5.82;3.45;;;;;;;10.62;72.55;99620.28;342130;28;1284;-70
2023/01/02 00:11:32;;;;;;;6.85;3.20;;;;;;;10.66;72.03;99621.88;340779;28;1692;-70
2023/01/02 00:11:44;;;;;;;6.47;3.30;;;;;;;10.66;72.20;99617.53;341489;28;1893;-71
2023/01/02 00:11:56;;;;;;;5.32;3.22;;;;;;;10.67;71.97;99619.25;340257;28;1715;-71
2023/01/02 00:12:08;;;;;;;4.75;3.20;;;;;;;10.68;72.18;99618.31;340529;28;1662;-71
2023/01/02 00:12:20;;;;;;;7.03;4.10;;;;;;;10.65;72.19;99615.00;340914;29;1124;-71
2023/01/02 00:12:32;;;;;;;7.55;4.78;;;;;;;10.66;72.25;99617.53;340862;29;1066;-70
2023/01/02 00:12:44;;;;;;;10.57;4.82;;;;;;;10.66;72.11;99612.31;340078;28;1752;-70
2023/01/02 00:12:56;;;;;;;7.43;3.40;;;;;;;10.63;72.22;99616.81;341350;28;1634;-71
2023/01/02 00:13:08;;;;;;;8.20;3.40;;;;;;;10.59;72.54;99616.88;340930;28;1717;-70
2023/01/02 00:13:20;;;;;;;5.28;3.20;;;;;;;10.64;72.19;99614.13;340692;28;1343;-71
2023/01/02 00:13:32;;;;;;;5.03;3.30;;;;;;;10.58;72.42;99620.41;340950;29;1067;-70
2023/01/02 00:13:44;;;;;;;5.45;3.45;;;;;;;10.45;73.00;99619.09;341214;29;1074;-71
2023/01/02 00:13:56;;;;;;;7.75;3.60;;;;;;;10.45;72.75;99619.09;340750;29;1380;-70
2023/01/02 00:14:08;;;;;;;7.80;3.55;;;;;;;10.50;72.82;99613.75;340380;28;1719;-71
2023/01/02 00:14:20;;;;;;;7.80;3.40;;;;;;;10.54;72.86;99617.94;340418;28;1420;-71
2023/01/02 00:14:32;;;;;;;6.35;3.15;;;;;;;10.57;72.93;99617.84;339938;29;1166;-71
2023/01/02 00:14:44;;;;;;;6.57;3.10;;;;;;;10.60;72.74;99620.31;340371;29;1035;-70
2023/01/02 00:14:56;;;;;;;4.72;2.92;;;;;;;10.63;72.61;99616.81;341252;28;1683;-71
2023/01/02 00:15:08;;;;;;;5.55;3.05;;;;;;;10.61;72.83;99616.84;343721;28;1753;-71
2023/01/02 00:15:20;;;;;;;4.72;3.00;;;;;;;10.58;72.88;99622.13;344273;28;1502;-71
2023/01/02 00:15:32;;;;;;;5.20;3.35;;;;;;;10.56;72.60;99611.81;343061;28;1824;-71
2023/01/02 00:15:44;;;;;;;5.78;3.35;;;;;;;10.58;72.90;99616.94;343099;28;895;-71
2023/01/02 00:15:56;;;;;;;5.95;3.30;;;;;;;10.60;72.80;99622.94;342780;28;1649;-71
2023/01/02 00:16:08;;;;;;;5.57;3.00;;;;;;;10.63;72.26;99615.03;342734;28;1813;-71
2023/01/02 00:16:21;;;;;;;5.88;3.10;;;;;;;10.59;72.45;99616.03;343321;28;1271;-71
2023/01/02 00:16:33;;;;;;;5.53;3.30;;;;;;;10.62;72.99;99620.28;343113;28;1847;-71
2023/01/02 00:16:45;;;;;;;5.72;3.28;;;;;;;10.64;72.43;99619.31;343077;28;1723;-71
2023/01/02 00:16:57;;;;;;;5.22;3.08;;;;;;;10.65;72.78;99618.44;341540;28;1450;-71
2023/01/02 00:17:09;;;;;;;5.20;3.10;;;;;;;10.68;72.28;99620.91;341005;28;1291;-71
2023/01/02 00:17:21;;;;;;;5.53;2.95;;;;;;;10.62;72.42;99620.28;341044;28;1875;-71
2023/01/02 00:17:33;;;;;;;6.63;3.10;;;;;;;10.60;72.82;99612.53;341587;28;1865;-71
2023/01/02 00:17:45;;;;;;;7.45;3.10;;;;;;;10.61;72.49;99614.25;342104;28;1941;-71
2023/01/02 00:17:57;;;;;;;6.93;3.10;;;;;;;10.64;72.45;99618.47;342092;28;1067;-71
2023/01/02 00:18:09;;;;;;;6.85;3.08;;;;;;;10.65;72.89;99621.03;341556;28;1829;-71
2023/01/02 00:18:21;;;;;;;6.53;3.17;;;;;;;10.66;72.56;99611.47;341813;28;1108;-71
2023/01/02 00:18:33;;;;;;;5.95;3.33;;;;;;;10.67;72.72;99615.78;343598;28;1023;-71
2023/01/02 00:18:46;;;;;;;5.82;3.40;;;;;;;10.70;72.22;99620.88;342846;28;2163;-71
2023/01/02 00:18:58;;;;;;;6.55;3.38;;;;;;;10.73;72.48;99616.44;343547;28;1063;-71
2023/01/02 00:19:10;;;;;;;6.55;3.30;;;;;;;10.73;72.48;99611.22;342388;28;1817;-71
2023/01/02 00:19:22;;;;;;;5.75;3.25;;;;;;;10.70;72.61;99619.13;342982;28;1313;-71
2023/01/02 00:19:34;;;;;;;5.80;3.20;;;;;;;10.72;72.61;99621.69;342530;28;1566;-71
2023/01/02 00:19:48;;;;;;;6.55;3.28;;;;;;;10.72;72.36;99617.31;342086;28;1241;-71
2023/01/02 00:20:00;;;;;;;7.30;3.35;;;;;;;10.72;72.47;99617.31;342153;28;1061;-71
2023/01/02 00:20:12;;;;;;;6.45;3.47;;;;;;;10.66;72.27;99611.47;342127;28;1065;-72
2023/01/02 00:20:24;;;;;;;6.72;3.25;;;;;;;10.63;72.72;99609.84;343833;28;1318;-71
2023/01/02 00:20:36;;;;;;;6.13;3.03;;;;;;;10.65;72.75;99615.84;342437;28;2016;-71
2023/01/02 00:20:48;;;;;;;5.90;2.97;;;;;;;10.66;72.70;99616.69;343045;28;1720;-71
2023/01/02 00:21:04;;;;;;;4.60;2.95;;;;;;;10.66;72.42;99611.47;341825;28;1668;-71
2023/01/02 00:21:17;;;;;;;6.55;3.05;;;;;;;10.68;72.52;99610.53;341222;28;1313;-71
2023/01/02 00:21:29;;;;;;;7.90;3.30;;;;;;;10.64;72.49;99603.72;343560;28;1978;-71
2023/01/02 00:21:41;;;;;;;10.18;7.25;;;;;;;10.60;72.49;99607.34;343623;28;1070;-71
2023/01/02 00:21:53;;;;;;;13.25;10.27;;;;;;;10.55;72.90;99609.25;342321;28;1051;-71
2023/01/02 00:22:05;;;;;;;11.50;10.25;;;;;;;10.55;73.01;99610.09;342236;28;1215;-71
2023/01/02 00:22:17;;;;;;;9.60;7.68;;;;;;;10.49;73.42;99609.47;342285;28;1192;-71
2023/01/02 00:22:29;;;;;;;9.88;7.43;;;;;;;10.49;73.59;99614.66;342356;28;1311;-71
2023/01/02 00:22:41;;;;;;;11.00;8.60;;;;;;;10.48;73.85;99612.94;342588;28;1695;-71
2023/01/02 00:22:53;;;;;;;13.40;10.88;;;;;;;10.49;73.64;99612.91;342345;28;1019;-71
2023/01/02 00:23:06;;;;;;;14.75;13.18;;;;;;;10.51;73.82;99612.84;342472;28;1027;-71
2023/01/02 00:23:17;;;;;;;15.38;13.77;;;;;;;10.51;73.42;99612.84;342084;28;1320;-71
2023/01/02 00:23:30;;;;;;;12.25;10.98;;;;;;;10.56;73.60;99606.63;342124;28;1049;-71
2023/01/02 00:23:42;;;;;;;10.23;9.02;;;;;;;10.61;73.13;99609.03;342297;28;1270;-71
2023/01/02 00:23:54;;;;;;;10.50;8.45;;;;;;;10.64;72.95;99608.94;342109;28;1067;-71
2023/01/02 00:24:06;;;;;;;9.95;7.75;;;;;;;10.64;73.17;99614.13;342103;28;1082;-71
2023/01/02 00:24:18;;;;;;;9.05;6.50;;;;;;;10.60;73.07;99617.72;342426;28;1370;-71
2023/01/02 00:24:30;;;;;;;8.75;6.63;;;;;;;10.61;73.54;99608.22;342273;28;1839;-71
2023/01/02 00:24:42;;;;;;;8.70;6.70;;;;;;;10.62;73.73;99610.72;341894;28;1577;-71
2023/01/02 00:24:54;;;;;;;7.95;6.40;;;;;;;10.66;73.37;99612.31;342393;28;1315;-71
2023/01/02 00:25:06;;;;;;;7.65;6.32;;;;;;;10.69;72.96;99607.03;342042;28;1624;-71
2023/01/02 00:25:18;;;;;;;8.10;6.22;;;;;;;10.72;73.25;99613.88;341845;28;1238;-71
2023/01/02 00:25:33;;;;;;;9.73;6.18;;;;;;;10.76;73.05;99623.25;341961;28;1075;-71
2023/01/02 00:25:47;;;;;;;10.43;5.88;;;;;;;10.80;72.73;99609.25;342261;28;1178;-71
2023/01/02 00:25:59;;;;;;;7.55;4.95;;;;;;;10.84;72.25;99608.25;343361;28;1023;-71
2023/01/02 00:26:11;;;;;;;5.78;4.22;;;;;;;10.85;72.52;99609.13;343494;28;1050;-71
2023/01/02 00:26:23;;;;;;;7.65;4.25;;;;;;;10.88;72.51;99615.03;343443;28;1255;-71
2023/01/02 00:26:35;;;;;;;7.85;4.35;;;;;;;10.89;72.08;99611.56;341614;28;1662;-71
2023/01/02 00:26:47;;;;;;;7.63;4.45;;;;;;;10.91;72.20;99606.31;342202;28;1141;-71
2023/01/02 00:26:59;;;;;;;7.38;4.20;;;;;;;10.92;72.37;99614.03;341980;28;1314;-71
2023/01/02 00:27:11;;;;;;;7.40;4.32;;;;;;;10.94;71.76;99614.84;342033;28;1036;-71
2023/01/02 00:27:23;;;;;;;6.85;4.43;;;;;;;10.96;71.66;99609.59;342001;28;1202;-71
2023/01/02 00:27:34;;;;;;;8.80;4.15;;;;;;;10.96;71.53;99600.03;342161;28;1371;-71
2023/01/02 00:27:46;;;;;;;8.55;3.70;;;;;;;10.97;71.38;99608.69;342191;28;1185;-71
2023/01/02 00:27:59;;;;;;;5.63;3.30;;;;;;;10.99;71.32;99609.50;341788;28;1263;-71
2023/01/02 00:28:11;;;;;;;4.70;3.22;;;;;;;10.99;71.71;99609.50;340354;28;1820;-71
2023/01/02 00:28:23;;;;;;;4.97;3.28;;;;;;;10.98;71.59;99608.63;341929;28;1611;-71
2023/01/02 00:28:37;;;;;;;6.20;3.70;;;;;;;10.97;71.51;99606.09;342109;28;1136;-71
2023/01/02 00:28:49;;;;;;;6.72;3.70;;;;;;;10.97;71.18;99604.34;343366;28;1051;-71
2023/01/02 00:29:01;;;;;;;5.63;3.60;;;;;;;10.97;71.42;99609.53;343344;28;1067;-71
2023/01/02 00:29:13;;;;;;;5.20;3.30;;;;;;;10.97;71.56;99612.13;343495;28;1223;-71
2023/01/02 00:29:25;;;;;;;4.80;3.33;;;;;;;10.97;71.24;99609.53;342310;28;1344;-71
2023/01/02 00:29:37;;;;;;;5.80;3.47;;;;;;;10.99;71.68;99604.28;342219;28;1035;-71
2023/01/02 00:29:49;;;;;;;7.10;3.20;;;;;;;10.96;71.07;99617.38;342547;28;726;-71
2023/01/02 00:30:01;;;;;;;7.75;3.17;;;;;;;10.98;71.42;99618.19;342448;28;1602;-71
2023/01/02 00:30:13;;;;;;;6.15;3.10;;;;;;;10.96;71.26;99604.38;343109;28;1345;-70
2023/01/02 00:30:25;;;;;;;5.53;3.10;;;;;;;10.95;71.57;99602.69;342288;28;1761;-71
2023/01/02 00:30:40;;;;;;;5.50;3.17;;;;;;;10.94;71.50;99611.38;342188;28;1587;-71
2023/01/02 00:30:52;;;;;;;7.03;3.63;;;;;;;10.93;71.11;99609.72;342225;28;1717;-71
2023/01/02 00:31:12;;;;;;;6.25;3.60;;;;;;;10.91;71.23;99609.75;341893;28;1783;-71
2023/01/02 00:31:25;;;;;;;4.72;3.40;;;;;;;10.91;71.67;99611.50;341787;28;1532;-71
2023/01/02 00:31:38;;;;;;;5.57;3.47;;;;;;;10.92;71.63;99608.00;341105;28;1086;-71
2023/01/02 00:31:50;;;;;;;6.75;3.88;;;;;;;10.89;71.30;99608.97;341856;28;1188;-71
2023/01/02 00:32:03;;;;;;;6.38;3.90;;;;;;;10.92;71.51;99614.03;341937;28;1039;-71
2023/01/02 00:32:14;;;;;;;5.72;3.47;;;;;;;10.88;72.00;99606.41;342139;28;1120;-71
2023/01/02 00:32:26;;;;;;;5.55;3.20;;;;;;;10.88;72.00;99616.81;340893;29;1378;-70
2023/01/02 00:32:38;;;;;;;5.50;3.08;;;;;;;10.88;71.60;99616.81;341010;28;1613;-69
2023/01/02 00:32:50;;;;;;;5.85;3.20;;;;;;;10.90;71.81;99617.59;342100;28;1220;-69
2023/01/02 00:33:03;;;;;;;5.95;3.25;;;;;;;10.89;71.54;99613.31;342214;28;1054;-70
2023/01/02 00:33:15;;;;;;;5.45;3.15;;;;;;;10.86;71.90;99613.41;342123;28;1117;-70
2023/01/02 00:33:27;;;;;;;5.18;3.17;;;;;;;10.85;71.86;99622.97;341890;28;1494;-70
2023/01/02 00:33:39;;;;;;;4.65;3.05;;;;;;;10.85;71.74;99611.72;342372;28;1063;-70
2023/01/02 00:33:51;;;;;;;4.55;3.10;;;;;;;10.82;71.66;99615.25;342406;28;1031;-70
2023/01/02 00:34:03;;;;;;;4.15;3.10;;;;;;;10.80;71.82;99617.06;342408;28;1043;-70
2023/01/02 00:34:15;;;;;;;5.13;3.00;;;;;;;10.82;71.87;99614.41;342134;28;1108;-70
2023/01/02 00:34:27;;;;;;;5.68;2.97;;;;;;;10.82;71.82;99617.00;341721;28;1839;-71
2023/01/02 00:34:38;;;;;;;6.00;3.10;;;;;;;10.81;72.21;99615.34;342398;28;1167;-70
2023/01/02 00:34:50;;;;;;;5.82;3.22;;;;;;;10.79;71.95;99618.81;342189;28;1083;-70
2023/01/02 00:35:03;;;;;;;6.15;3.30;;;;;;;10.76;72.21;99613.72;342153;28;1394;-70
2023/01/02 00:35:16;;;;;;;5.60;3.38;;;;;;;10.75;72.26;99617.22;342018;28;1169;-73
2023/01/02 00:35:28;;;;;;;6.28;3.30;;;;;;;10.68;72.24;99615.72;342035;28;1237;-70
2023/01/02 00:35:40;;;;;;;4.85;3.00;;;;;;;10.72;72.44;99619.91;342228;28;1031;-70
2023/01/02 00:35:52;;;;;;;5.65;2.88;;;;;;;10.75;72.52;99617.22;342245;28;1294;-71
2023/01/02 00:36:09;;;;;;;6.93;2.83;;;;;;;10.76;72.21;99612.88;342249;28;1056;-70
2023/01/02 00:36:21;;;;;;;7.38;2.88;;;;;;;10.75;72.22;99612.03;342172;28;1314;-70
2023/01/02 00:36:33;;;;;;;5.97;2.70;;;;;;;10.75;72.05;99614.63;342190;28;1035;-70
2023/01/02 00:36:45;;;;;;;5.03;2.78;;;;;;;10.75;72.25;99612.03;342434;28;1379;-69
2023/01/02 00:36:57;;;;;;;4.93;2.88;;;;;;;10.74;72.01;99612.91;342178;28;1104;-70
2023/01/02 00:37:09;;;;;;;4.90;2.92;;;;;;;10.71;72.23;99613.03;342181;28;1264;-69
2023/01/02 00:37:21;;;;;;;5.80;3.10;;;;;;;10.71;72.27;99614.78;342157;28;1572;-69
2023/01/02 00:37:33;;;;;;;6.25;3.22;;;;;;;10.71;72.20;99609.59;342201;28;1394;-69
2023/01/02 00:37:46;;;;;;;6.63;3.03;;;;;;;10.70;72.02;99613.91;340785;29;1210;-71
2023/01/02 00:37:58;;;;;;;6.32;2.95;;;;;;;10.67;72.44;99614.03;340646;29;1193;-70
2023/01/02 00:38:09;;;;;;;6.30;4.38;;;;;;;10.68;72.60;99604.47;340587;28;2128;-70
2023/01/02 00:38:21;;;;;;;11.52;10.20;;;;;;;10.62;72.55;99612.50;339991;28;1813;-70
2023/01/02 00:38:34;;;;;;;15.70;13.65;;;;;;;10.54;73.00;99612.72;340628;29;2136;-70
2023/01/02 00:38:49;;;;;;;12.52;9.50;;;;;;;10.58;72.65;99603.94;340884;29;1020;-70
2023/01/02 00:39:01;;;;;;;9.52;6.15;;;;;;;10.59;72.94;99610.84;340645;29;1048;-69
2023/01/02 00:39:13;;;;;;;6.75;3.47;;;;;;;10.59;72.74;99608.25;340783;29;1191;-69
2023/01/02 00:39:27;;;;;;;6.75;3.25;;;;;;;10.59;72.54;99606.50;340509;29;1365;-70
2023/01/02 00:39:40;;;;;;;5.80;3.22;;;;;;;10.58;72.42;99609.13;340938;29;1181;-70
2023/01/02 00:39:52;;;;;;;5.63;3.60;;;;;;;10.55;73.02;99609.25;341798;28;1299;-70
2023/01/02 00:40:05;;;;;;;5.45;3.80;;;;;;;10.55;73.27;99609.25;342227;28;1281;-71
2023/01/02 00:40:17;;;;;;;5.10;3.67;;;;;;;10.45;73.48;99607.88;342053;28;1201;-69
2023/01/02 00:40:29;;;;;;;4.55;3.50;;;;;;;10.45;73.25;99605.25;342022;28;1040;-71
2023/01/02 00:40:41;;;;;;;5.75;3.50;;;;;;;10.47;73.59;99603.47;341835;28;1099;-70
2023/01/02 00:40:53;;;;;;;6.35;3.63;;;;;;;10.49;73.35;99604.25;342171;28;1059;-70
2023/01/02 00:41:06;;;;;;;7.38;3.58;;;;;;;10.51;73.32;99605.06;342088;28;1433;-70
2023/01/02 00:41:20;;;;;;;5.82;3.00;;;;;;;10.56;73.00;99605.75;342292;28;1261;-70
2023/01/02 00:41:32;;;;;;;4.75;2.75;;;;;;;10.59;73.32;99610.84;341774;28;2003;-72
2023/01/02 00:41:44;;;;;;;5.00;2.97;;;;;;;10.62;73.03;99605.53;343256;28;1579;-70
2023/01/02 00:41:56;;;;;;;4.95;3.15;;;;;;;10.64;72.84;99614.13;343593;28;1294;-70
2023/01/02 00:42:08;;;;;;;4.30;3.10;;;;;;;10.68;72.84;99609.69;343721;28;1071;-70
2023/01/02 00:42:20;;;;;;;4.35;3.10;;;;;;;10.69;72.57;99604.44;343501;28;1863;-69
2023/01/02 00:42:32;;;;;;;5.78;3.45;;;;;;;10.69;72.64;99601.84;343452;28;1100;-70
2023/01/02 00:42:43;;;;;;;7.30;3.60;;;;;;;10.72;72.47;99603.47;343505;28;1095;-70
2023/01/02 00:42:55;;;;;;;7.28;3.58;;;;;;;10.74;72.50;99609.47;343698;28;1082;-70
2023/01/02 00:43:07;;;;;;;5.55;3.22;;;;;;;10.78;72.44;99611.94;343397;28;1537;-71
2023/01/02 00:43:19;;;;;;;4.43;3.20;;;;;;;10.79;72.64;99605.81;343590;28;1344;-71
2023/01/02 00:43:32;;;;;;;5.25;3.30;;;;;;;10.83;72.55;99608.31;343649;28;1244;-69
2023/01/02 00:43:44;;;;;;;6.70;3.70;;;;;;;10.84;72.29;99610.00;341294;28;1793;-72
2023/01/02 00:43:56;;;;;;;6.40;3.47;;;;;;;10.84;72.26;99600.44;341233;28;1642;-70
2023/01/02 00:44:08;;;;;;;7.00;3.20;;;;;;;10.82;72.63;99610.06;339496;29;1206;-70
2023/01/02 00:44:20;;;;;;;8.43;3.13;;;;;;;10.79;72.42;99607.56;341446;28;1348;-71
2023/01/02 00:44:31;;;;;;;9.63;3.10;;;;;;;10.81;72.55;99607.53;342219;28;1329;-70
2023/01/02 00:44:43;;;;;;;8.68;3.10;;;;;;;10.83;72.31;99610.94;342308;28;1199;-70
2023/01/02 00:44:55;;;;;;;6.55;3.40;;;;;;;10.83;72.50;99616.97;342273;28;1305;-71
2023/01/02 00:45:09;;;;;;;6.88;3.50;;;;;;;10.84;71.89;99610.00;341767;28;2042;-69
2023/01/02 00:45:21;;;;;;;8.27;5.45;;;;;;;10.85;72.18;99611.72;342949;28;1251;-69
2023/01/02 00:45:33;;;;;;;11.88;9.57;;;;;;;10.82;72.19;99611.81;343309;28;1060;-70
2023/01/02 00:45:46;;;;;;;16.92;15.23;;;;;;;10.83;72.18;99613.53;342457;28;1791;-70
2023/01/02 00:46:11;;;;;;;15.48;13.57;;;;;;;10.70;72.14;99608.72;342528;28;1169;-70
2023/01/02 00:46:36;;;;;;;9.55;5.82;;;;;;;10.44;73.41;99601.78;341830;28;1536;-70
2023/01/02 00:46:48;;;;;;;8.88;4.22;;;;;;;10.48;73.32;99612.94;342018;28;1052;-71
2023/01/02 00:47:00;;;;;;;7.53;3.83;;;;;;;10.47;73.31;99608.66;342745;28;2158;-71
2023/01/02 00:47:13;;;;;;;6.63;4.10;;;;;;;10.50;73.21;99605.94;343009;28;1635;-71
2023/01/02 00:47:25;;;;;;;6.68;3.95;;;;;;;10.45;73.29;99608.69;343436;28;1603;-70
2023/01/02 00:47:37;;;;;;;6.32;3.40;;;;;;;10.45;73.15;99607.88;343568;28;1418;-70
2023/01/02 00:47:49;;;;;;;7.40;3.42;;;;;;;10.43;73.52;99607.91;343521;28;1880;-70
2023/01/02 00:48:01;;;;;;;6.68;3.47;;;;;;;10.40;73.58;99605.38;343124;28;1193;-70
2023/01/02 00:48:13;;;;;;;5.25;3.28;;;;;;;10.33;73.58;99609.94;343384;28;1047;-70
2023/01/02 00:48:25;;;;;;;7.32;5.28;;;;;;;10.35;73.80;99608.16;344056;28;1320;-70
2023/01/02 00:48:37;;;;;;;13.73;12.23;;;;;;;10.36;73.62;99614.19;343436;28;1145;-71
2023/01/02 00:48:49;;;;;;;17.92;15.93;;;;;;;10.39;73.91;99609.75;342964;28;1630;-71
2023/01/02 00:49:01;;;;;;;18.60;16.30;;;;;;;10.39;73.77;99609.75;343132;28;1043;-70
2023/01/02 00:49:13;;;;;;;31.13;27.48;;;;;;;10.43;73.47;99610.50;342281;28;1063;-70
2023/01/02 00:49:25;;;;;;;40.30;36.05;;;;;;;10.46;73.31;99609.53;341557;28;1611;-70
2023/01/02 00:49:37;;;;;;;37.10;33.33;;;;;;;10.50;73.26;99605.94;342376;28;1099;-70
2023/01/02 00:49:49;;;;;;;25.27;22.73;;;;;;;10.52;73.68;99611.94;341165;28;1743;-70
2023/01/02 00:50:01;;;;;;;16.25;14.60;;;;;;;10.54;73.74;99608.41;342079;28;2202;-72
2023/01/02 00:50:13;;;;;;;11.75;9.73;;;;;;;10.56;73.26;99610.94;342275;28;1309;-70
2023/01/02 00:50:25;;;;;;;8.13;5.78;;;;;;;10.58;73.42;99610.00;341829;28;1324;-70
2023/01/02 00:50:37;;;;;;;7.63;5.10;;;;;;;10.61;72.98;99613.41;342193;28;959;-70
2023/01/02 00:50:49;;;;;;;7.60;4.53;;;;;;;10.63;72.77;99612.44;342371;28;1074;-70
2023/01/02 00:51:01;;;;;;;6.47;4.43;;;;;;;10.67;72.98;99611.44;342951;28;1247;-70
2023/01/02 00:51:13;;;;;;;6.00;4.38;;;;;;;10.70;72.86;99613.06;342391;28;1107;-70
2023/01/02 00:51:25;;;;;;;5.63;4.07;;;;;;;10.70;72.85;99602.69;343131;28;1303;-70
2023/01/02 00:51:37;;;;;;;6.20;4.07;;;;;;;10.72;72.98;99606.91;342763;28;1663;-71
2023/01/02 00:51:49;;;;;;;6.23;4.17;;;;;;;10.72;72.69;99609.50;342211;28;1140;-70
2023/01/02 00:52:01;;;;;;;7.30;4.30;;;;;;;10.71;72.71;99604.41;341953;28;1852;-70
2023/01/02 00:52:13;;;;;;;7.35;4.00;;;;;;;10.72;72.45;99612.13;343039;28;1442;-70
2023/01/02 00:52:25;;;;;;;6.13;3.72;;;;;;;10.72;72.83;99604.31;342841;28;1288;-70
2023/01/02 00:52:37;;;;;;;6.65;4.43;;;;;;;10.74;72.66;99605.13;343685;28;1136;-72
2023/01/02 00:52:50;;;;;;;11.48;7.63;;;;;;;10.73;72.79;99608.63;343441;28;1076;-70
2023/01/02 00:53:02;;;;;;;14.05;8.73;;;;;;;10.69;72.50;99601.84;342993;28;1660;-73
2023/01/02 00:53:15;;;;;;;10.90;6.57;;;;;;;10.71;72.74;99610.44;341992;28;1156;-70
2023/01/02 00:53:28;;;;;;;7.45;4.68;;;;;;;10.69;72.68;99612.22;342314;28;1064;-70
2023/01/02 00:53:40;;;;;;;6.40;4.22;;;;;;;10.69;72.69;99611.41;341618;28;2198;-70
2023/01/02 00:53:52;;;;;;;5.97;4.07;;;;;;;10.65;72.78;99605.44;342142;28;1190;-71
2023/01/02 00:54:04;;;;;;;6.68;4.20;;;;;;;10.68;72.68;99613.13;342012;28;1047;-71
2023/01/02 00:54:16;;;;;;;6.72;4.30;;;;;;;10.64;73.11;99608.94;342065;28;1211;-72
2023/01/02 00:54:28;;;;;;;6.30;4.47;;;;;;;10.66;73.11;99609.72;342137;28;994;-70
2023/01/02 00:54:40;;;;;;;6.25;4.20;;;;;;;10.68;72.86;99605.31;341978;28;1292;-73
2023/01/02 00:54:52;;;;;;;7.35;3.80;;;;;;;10.71;72.65;99610.44;341920;28;1234;-71
2023/01/02 00:55:04;;;;;;;7.80;3.55;;;;;;;10.67;72.66;99611.44;341798;28;1066;-71
2023/01/02 00:55:16;;;;;;;7.18;3.55;;;;;;;10.68;73.00;99605.31;341870;28;1343;-72
2023/01/02 00:55:28;;;;;;;7.88;3.70;;;;;;;10.68;73.02;99607.91;342027;28;1109;-70
2023/01/02 00:55:42;;;;;;;7.43;3.50;;;;;;;10.71;72.51;99613.03;341893;28;1124;-74
2023/01/02 00:55:54;;;;;;;6.95;3.30;;;;;;;10.71;72.47;99605.22;341177;28;1564;-71
2023/01/02 00:56:06;;;;;;;9.38;6.22;;;;;;;10.71;72.52;99609.59;341749;28;1052;-70
2023/01/02 00:56:18;;;;;;;11.70;7.57;;;;;;;10.71;72.63;99609.59;341903;28;1113;-70
2023/01/02 00:56:30;;;;;;;10.07;6.95;;;;;;;10.67;72.81;99608.84;342163;28;1358;-70
2023/01/02 00:56:42;;;;;;;8.52;5.35;;;;;;;10.66;73.08;99608.88;342137;28;1008;-71
2023/01/02 00:56:54;;;;;;;8.60;5.03;;;;;;;10.65;72.75;99610.66;342137;28;1191;-71
2023/01/02 00:57:06;;;;;;;7.30;4.32;;;;;;;10.65;72.58;99608.03;342166;28;1275;-71
2023/01/02 00:57:18;;;;;;;7.65;4.03;;;;;;;10.67;72.82;99608.84;342024;28;1288;-71
2023/01/02 00:57:30;;;;;;;6.82;3.67;;;;;;;10.68;72.45;99605.31;342201;28;1075;-70
2023/01/02 00:57:42;;;;;;;5.78;3.40;;;;;;;10.69;72.58;99614.84;341531;28;1908;-71
2023/01/02 00:57:54;;;;;;;5.60;3.35;;;;;;;10.68;73.13;99613.13;341504;28;1922;-70
2023/01/02 00:58:06;;;;;;;5.88;3.53;;;;;;;10.65;73.02;99608.03;342140;28;1094;-70
2023/01/02 00:58:18;;;;;;;5.97;3.70;;;;;;;10.64;73.20;99608.09;342130;28;1727;-70
2023/01/02 00:58:30;;;;;;;5.38;3.80;;;;;;;10.66;73.38;99607.13;341830;28;1145;-70
2023/01/02 00:58:42;;;;;;;5.93;3.60;;;;;;;10.67;73.48;99611.44;341606;28;1530;-70
2023/01/02 00:58:54;;;;;;;6.13;3.70;;;;;;;10.68;72.79;99602.72;341862;28;1091;-70
2023/01/02 00:59:06;;;;;;;5.53;3.55;;;;;;;10.66;73.35;99607.13;342107;28;1070;-70
2023/01/02 00:59:18;;;;;;;5.95;3.70;;;;;;;10.66;73.34;99612.31;341383;28;1872;-71
2023/01/02 00:59:30;;;;;;;6.65;3.80;;;;;;;10.69;73.49;99614.84;342216;28;1590;-70